Airport View

Enter AWOS ICAO identifier for current METAR.

ex. KFNL

KSRB 080335Z AUTO 00000KT 10SM SCT038 22/21 A3000 RMK A01

8 Jul 2020 04:03

Frequency: 128.25

Phone: 931-738-3111

Other Area AWOS: KCSV - K8A3 - KRNC - KM54

TAF KCSV 072320Z 0800/0824 01003KT P6SM VCSH SCT050 BKN150 FM080200 02002KT P6SM FEW050 SCT150 FM080600 00000KT 4SM BR SCT250 FM080900 00000KT 1SM BR SCT250 FM081300 36003KT P6SM SCT050 BKN120 PROB30 0818/0822 4SM -TSRA BKN050CB